createdAt,value
2023-05-10T00:01:14.701Z,6.65
2023-05-10T00:03:42.729Z,6.59
2023-05-10T00:06:10.801Z,6.53
2023-05-10T00:08:38.842Z,6.49
2023-05-10T00:11:06.759Z,6.49
2023-05-10T00:13:34.768Z,6.50
2023-05-10T00:16:02.843Z,6.47
2023-05-10T00:18:30.793Z,6.42
2023-05-10T00:20:58.686Z,6.38
2023-05-10T00:23:26.644Z,6.37
2023-05-10T00:25:54.545Z,6.37
2023-05-10T00:28:22.400Z,6.38
2023-05-10T00:30:50.358Z,6.35
2023-05-10T00:33:18.325Z,6.35
2023-05-10T00:35:46.217Z,6.34
2023-05-10T00:38:14.268Z,6.33
2023-05-10T00:40:42.933Z,6.30
2023-05-10T00:43:15.920Z,6.25
2023-05-10T00:45:44.727Z,6.22
2023-05-10T00:48:13.592Z,6.21
2023-05-10T00:50:41.739Z,6.23
2023-05-10T00:53:10.438Z,6.24
2023-05-10T00:55:39.305Z,6.22
2023-05-10T00:58:07.256Z,6.20
2023-05-10T01:00:35.593Z,6.17
2023-05-10T01:03:03.959Z,6.14
2023-05-10T01:05:32.925Z,6.14
2023-05-10T01:08:01.049Z,6.07
2023-05-10T01:10:29.160Z,6.04
2023-05-10T01:13:00.200Z,6.03
2023-05-10T01:15:28.487Z,6.03
2023-05-10T01:17:58.163Z,6.03
2023-05-10T01:20:33.098Z,6.03
2023-05-10T01:23:31.979Z,5.98
2023-05-10T01:26:07.454Z,5.90
2023-05-10T01:29:12.776Z,5.85
2023-05-10T01:32:17.661Z,5.76
2023-05-10T01:35:00.771Z,5.70
2023-05-10T01:37:43.235Z,5.65
2023-05-10T01:40:31.411Z,5.61
2023-05-10T01:43:06.427Z,5.57
2023-05-10T01:45:52.137Z,5.50
2023-05-10T01:48:22.125Z,5.44
2023-05-10T01:50:52.389Z,5.41
2023-05-10T01:53:22.354Z,5.37
2023-05-10T01:55:54.804Z,5.33
2023-05-10T01:58:32.650Z,5.34
2023-05-10T02:01:04.387Z,5.35
2023-05-10T02:03:36.344Z,5.35
2023-05-10T02:06:06.636Z,5.34
2023-05-10T02:08:37.671Z,5.31
2023-05-10T02:11:06.762Z,5.28
2023-05-10T02:13:37.522Z,5.26
2023-05-10T02:16:06.750Z,5.20
2023-05-10T02:18:37.618Z,5.18
2023-05-10T02:21:06.044Z,5.16
2023-05-10T02:23:34.822Z,5.16
2023-05-10T02:26:06.826Z,5.17
2023-05-10T02:28:37.267Z,5.19
2023-05-10T02:31:07.057Z,5.17
2023-05-10T02:33:36.358Z,5.18
2023-05-10T02:36:05.022Z,5.14
2023-05-10T02:38:35.800Z,5.10
2023-05-10T02:41:06.497Z,5.07
2023-05-10T02:43:34.967Z,5.04
2023-05-10T02:46:03.369Z,5.01
2023-05-10T02:48:31.395Z,4.96
2023-05-10T02:51:06.469Z,4.86
2023-05-10T02:53:37.156Z,4.80
2023-05-10T02:56:09.096Z,4.78
2023-05-10T02:58:37.123Z,4.75
2023-05-10T03:01:05.324Z,4.70
2023-05-10T03:03:33.311Z,4.70
2023-05-10T03:06:01.498Z,4.71
2023-05-10T03:08:32.963Z,4.67
2023-05-10T03:11:40.794Z,4.66
2023-05-10T03:14:41.695Z,4.61
2023-05-10T03:17:16.868Z,4.62
2023-05-10T03:19:57.432Z,4.63
2023-05-10T03:22:31.757Z,4.61
2023-05-10T03:25:03.617Z,4.59
2023-05-10T03:27:32.629Z,4.58
2023-05-10T03:30:08.809Z,4.57
2023-05-10T03:32:38.115Z,4.58
2023-05-10T03:35:10.730Z,4.59
2023-05-10T03:37:38.906Z,4.58
2023-05-10T03:40:08.001Z,4.59
2023-05-10T03:42:37.258Z,4.64
2023-05-10T03:45:05.601Z,4.66
2023-05-10T03:47:33.695Z,4.69
2023-05-10T03:50:02.788Z,4.71
2023-05-10T03:52:30.969Z,4.75
2023-05-10T03:54:58.920Z,4.80
2023-05-10T03:57:26.850Z,4.82
2023-05-10T03:59:54.775Z,4.85
2023-05-10T04:02:22.829Z,4.86
2023-05-10T04:04:51.724Z,4.89
2023-05-10T04:07:20.607Z,4.93
2023-05-10T04:09:48.837Z,4.98
2023-05-10T04:12:16.752Z,5.03
2023-05-10T04:14:44.749Z,5.07
2023-05-10T04:17:12.883Z,5.12
2023-05-10T04:19:40.860Z,5.18
2023-05-10T04:22:08.771Z,5.26
2023-05-10T04:24:36.685Z,5.34
2023-05-10T04:27:04.585Z,5.44
2023-05-10T04:29:32.596Z,5.54
2023-05-10T04:32:00.465Z,5.66
2023-05-10T04:34:28.564Z,5.78
2023-05-10T04:36:56.452Z,5.91
2023-05-10T04:39:24.309Z,6.03
2023-05-10T04:41:52.207Z,6.17
2023-05-10T04:44:20.197Z,6.29
2023-05-10T04:46:48.180Z,6.41
2023-05-10T04:49:16.355Z,6.53
2023-05-10T04:51:44.378Z,6.66
2023-05-10T04:54:12.352Z,6.79
2023-05-10T04:56:40.333Z,6.92
2023-05-10T04:59:08.344Z,7.09
2023-05-10T05:01:36.220Z,7.32
2023-05-10T05:04:04.481Z,7.48
2023-05-10T05:06:32.427Z,7.65
2023-05-10T05:09:00.476Z,7.84
2023-05-10T05:11:28.521Z,8.03
2023-05-10T05:13:56.433Z,8.24
2023-05-10T05:16:24.390Z,8.50
2023-05-10T05:18:52.332Z,8.74
2023-05-10T05:21:20.941Z,8.96
2023-05-10T05:23:48.881Z,9.15
2023-05-10T05:26:17.202Z,9.34
2023-05-10T05:28:45.308Z,9.57
2023-05-10T05:31:13.382Z,9.80
2023-05-10T05:33:41.364Z,9.98
2023-05-10T05:36:09.544Z,10.13
2023-05-10T05:38:37.477Z,10.24
2023-05-10T05:41:05.341Z,10.37
2023-05-10T05:43:33.658Z,10.56
2023-05-10T05:46:02.523Z,10.72
2023-05-10T05:48:31.523Z,10.92
2023-05-10T05:50:59.442Z,11.10
2023-05-10T05:53:27.376Z,11.26
2023-05-10T05:55:57.269Z,11.39
2023-05-10T05:58:26.612Z,11.52
2023-05-10T06:00:55.058Z,11.69
2023-05-10T06:03:23.085Z,11.81
2023-05-10T06:05:51.319Z,11.95
2023-05-10T06:08:19.239Z,12.08
2023-05-10T06:10:47.175Z,12.25
2023-05-10T06:13:15.223Z,12.43
2023-05-10T06:15:43.107Z,12.59
2023-05-10T06:18:11.086Z,12.70
2023-05-10T06:20:39.660Z,12.79
2023-05-10T06:23:07.683Z,12.85
2023-05-10T06:25:35.589Z,12.80
2023-05-10T06:28:03.604Z,12.83
2023-05-10T06:30:31.717Z,12.87
2023-05-10T06:32:59.889Z,12.87
2023-05-10T06:35:28.024Z,12.97
2023-05-10T06:37:56.509Z,13.14
2023-05-10T06:40:24.486Z,13.19
2023-05-10T06:42:52.505Z,13.33
2023-05-10T06:45:20.702Z,13.44
2023-05-10T06:47:49.351Z,13.56
2023-05-10T06:50:17.351Z,13.59
2023-05-10T06:52:46.574Z,13.65
2023-05-10T06:55:14.691Z,13.65
2023-05-10T06:57:42.863Z,13.76
2023-05-10T07:00:11.376Z,13.89
2023-05-10T07:02:39.322Z,13.94
2023-05-10T07:05:07.842Z,14.07
2023-05-10T07:07:36.115Z,14.19
2023-05-10T07:10:04.634Z,14.32
2023-05-10T07:12:32.700Z,14.40
2023-05-10T07:15:00.825Z,14.48
2023-05-10T07:17:29.035Z,14.60
2023-05-10T07:19:57.576Z,14.76
2023-05-10T07:22:25.899Z,14.77
2023-05-10T07:24:54.866Z,14.83
2023-05-10T07:27:22.749Z,15.01
2023-05-10T07:29:50.677Z,15.18
2023-05-10T07:32:19.032Z,15.28
2023-05-10T07:34:47.328Z,15.41
2023-05-10T07:37:15.334Z,15.44
2023-05-10T07:39:43.393Z,15.40
2023-05-10T07:42:11.303Z,15.38
2023-05-10T07:44:39.197Z,15.33
2023-05-10T07:47:07.125Z,15.32
2023-05-10T07:49:35.187Z,15.33
2023-05-10T07:52:04.459Z,15.37
2023-05-10T07:54:32.491Z,15.32
2023-05-10T07:57:01.710Z,15.30
2023-05-10T07:59:29.675Z,15.36
2023-05-10T08:01:57.648Z,15.52
2023-05-10T08:04:25.672Z,15.59
2023-05-10T08:06:53.597Z,15.70
2023-05-10T08:09:25.136Z,15.69
2023-05-10T08:11:53.619Z,15.67
2023-05-10T08:14:21.624Z,15.63
2023-05-10T08:16:49.661Z,15.63
2023-05-10T08:19:20.527Z,15.70
2023-05-10T08:21:48.770Z,15.79
2023-05-10T08:24:16.870Z,15.83
2023-05-10T08:26:44.830Z,15.91
2023-05-10T08:29:12.916Z,15.98
2023-05-10T08:31:48.459Z,16.01
2023-05-10T08:34:16.953Z,15.99
2023-05-10T08:36:44.892Z,16.02
2023-05-10T08:39:22.815Z,16.01
2023-05-10T08:42:02.468Z,16.05
2023-05-10T08:44:33.401Z,16.16
2023-05-10T08:47:06.541Z,16.23
2023-05-10T08:49:35.082Z,16.19
2023-05-10T08:52:06.618Z,16.14
2023-05-10T08:54:37.560Z,16.15
2023-05-10T08:57:05.942Z,16.20
2023-05-10T08:59:34.243Z,16.21
2023-05-10T09:02:03.398Z,16.26
2023-05-10T09:04:32.357Z,16.33
2023-05-10T09:07:00.685Z,16.31
2023-05-10T09:09:29.214Z,16.40
2023-05-10T09:11:57.409Z,16.46
2023-05-10T09:14:26.451Z,16.56
2023-05-10T09:16:56.246Z,16.62
2023-05-10T09:19:24.387Z,16.67
2023-05-10T09:21:52.406Z,16.71
2023-05-10T09:24:20.471Z,16.74
2023-05-10T09:26:50.014Z,16.76
2023-05-10T09:29:18.227Z,16.89
2023-05-10T09:31:57.500Z,16.96
2023-05-10T09:34:36.633Z,16.86
2023-05-10T09:37:05.444Z,16.66
2023-05-10T09:39:33.451Z,16.59
2023-05-10T09:42:04.911Z,16.64
2023-05-10T09:44:34.383Z,16.87
2023-05-10T09:47:03.413Z,16.90
2023-05-10T09:49:31.726Z,16.83
2023-05-10T09:52:07.126Z,16.89
2023-05-10T09:54:37.538Z,17.02
2023-05-10T09:57:06.020Z,17.08
2023-05-10T09:59:35.865Z,17.10
2023-05-10T10:02:04.283Z,17.14
2023-05-10T10:04:32.810Z,17.09
2023-05-10T10:07:05.575Z,17.11
2023-05-10T10:09:35.197Z,17.11
2023-05-10T10:12:04.615Z,17.11
2023-05-10T10:14:32.686Z,17.07
2023-05-10T10:19:36.542Z,16.89
2023-05-10T10:22:05.673Z,16.92
2023-05-10T10:24:33.875Z,16.91
2023-05-10T10:27:22.670Z,16.92
2023-05-10T10:29:53.476Z,17.04
2023-05-10T10:32:39.123Z,17.22
2023-05-10T10:35:09.466Z,17.31
2023-05-10T10:37:48.605Z,17.32
2023-05-10T10:40:34.686Z,17.26
2023-05-10T10:43:26.493Z,17.29
2023-05-10T10:46:15.423Z,17.20
2023-05-10T10:49:10.158Z,17.15
2023-05-10T10:51:41.892Z,17.31
2023-05-10T10:54:13.701Z,17.44
2023-05-10T10:56:41.622Z,17.51
2023-05-10T10:59:09.902Z,17.34
2023-05-10T11:01:37.933Z,17.24
2023-05-10T11:04:05.989Z,17.18
2023-05-10T11:06:35.867Z,17.12
2023-05-10T11:09:12.468Z,17.09
2023-05-10T11:11:59.385Z,17.19
2023-05-10T11:14:27.438Z,17.21
2023-05-10T11:16:55.401Z,17.21
2023-05-10T11:19:28.780Z,17.17
2023-05-10T11:22:05.775Z,17.04
2023-05-10T11:24:34.537Z,16.96
2023-05-10T11:27:02.890Z,16.86
2023-05-10T11:29:31.312Z,16.80
2023-05-10T11:32:00.307Z,16.85
2023-05-10T11:34:29.416Z,16.93
2023-05-10T11:36:58.598Z,16.99
2023-05-10T11:39:31.667Z,17.09
2023-05-10T11:42:00.241Z,17.23
2023-05-10T11:44:32.638Z,17.27
2023-05-10T11:47:02.161Z,17.24
2023-05-10T11:49:30.496Z,17.10
2023-05-10T11:52:06.234Z,17.00
2023-05-10T11:54:35.904Z,16.98
2023-05-10T11:57:04.704Z,16.96
2023-05-10T11:59:32.563Z,16.94
2023-05-10T12:02:00.899Z,17.00
2023-05-10T12:04:30.481Z,17.03
2023-05-10T12:06:58.845Z,17.10
2023-05-10T12:09:39.463Z,17.04
2023-05-10T12:12:11.767Z,17.02
2023-05-10T12:14:40.082Z,16.96
2023-05-10T12:17:12.926Z,16.89
2023-05-10T12:19:42.892Z,16.89
2023-05-10T12:22:11.119Z,16.92
2023-05-10T12:24:42.277Z,17.07
2023-05-10T12:27:10.426Z,17.19
2023-05-10T12:29:45.447Z,17.18
2023-05-10T12:32:13.524Z,17.22
2023-05-10T12:34:41.594Z,17.20
2023-05-10T12:37:09.638Z,17.09
2023-05-10T12:39:48.756Z,17.06
2023-05-10T12:42:20.229Z,17.08
2023-05-10T12:44:51.308Z,17.05
2023-05-10T12:47:19.569Z,17.04
2023-05-10T12:49:51.386Z,16.99
2023-05-10T12:52:19.442Z,17.05
2023-05-10T12:54:47.630Z,17.09
2023-05-10T12:57:15.985Z,17.10
2023-05-10T12:59:43.992Z,17.11
2023-05-10T13:02:11.979Z,17.07
2023-05-10T13:04:41.269Z,17.03
2023-05-10T13:07:10.120Z,17.05
2023-05-10T13:09:38.133Z,17.03
2023-05-10T13:12:07.690Z,17.02
2023-05-10T13:14:37.410Z,17.04
2023-05-10T13:17:05.602Z,17.09
2023-05-10T13:19:33.745Z,17.12
2023-05-10T13:22:01.918Z,17.06
2023-05-10T13:24:30.198Z,16.98
2023-05-10T13:26:58.200Z,16.88
2023-05-10T13:29:29.448Z,16.89
2023-05-10T13:31:57.637Z,16.90
2023-05-10T13:34:25.856Z,16.86
2023-05-10T13:36:54.854Z,16.85
2023-05-10T13:39:23.890Z,16.87
2023-05-10T13:41:53.290Z,16.90
2023-05-10T13:44:21.854Z,16.92
2023-05-10T13:46:49.891Z,16.95
2023-05-10T13:49:18.053Z,16.96
2023-05-10T13:51:46.130Z,16.94
2023-05-10T13:54:14.456Z,16.92
2023-05-10T13:56:43.540Z,16.90
2023-05-10T13:59:11.731Z,16.87
2023-05-10T14:01:39.683Z,16.87
2023-05-10T14:04:11.220Z,16.83
2023-05-10T14:06:40.549Z,16.79
2023-05-10T14:09:08.611Z,16.83
2023-05-10T14:11:36.896Z,16.77
2023-05-10T14:14:04.822Z,16.67
2023-05-10T14:16:33.002Z,16.63
2023-05-10T14:19:01.134Z,16.63
2023-05-10T14:21:36.082Z,16.65
2023-05-10T14:24:04.183Z,16.72
2023-05-10T14:26:32.498Z,16.74
2023-05-10T14:29:00.524Z,16.74
2023-05-10T14:31:28.650Z,16.70
2023-05-10T14:33:56.904Z,16.69
2023-05-10T14:36:24.894Z,16.72
2023-05-10T14:38:52.884Z,16.69
2023-05-10T14:41:20.927Z,16.64
2023-05-10T14:43:48.882Z,16.60
2023-05-10T14:46:17.062Z,16.59
2023-05-10T14:48:45.452Z,16.59
2023-05-10T14:51:13.480Z,16.60
2023-05-10T14:53:41.998Z,16.61
2023-05-10T14:56:10.216Z,16.60
2023-05-10T14:58:38.384Z,16.52
2023-05-10T15:01:06.489Z,16.51
2023-05-10T15:03:35.666Z,16.45
2023-05-10T15:06:05.188Z,16.43
2023-05-10T15:08:33.510Z,16.44
2023-05-10T15:11:01.631Z,16.42
2023-05-10T15:13:30.137Z,16.44
2023-05-10T15:15:58.177Z,16.42
2023-05-10T15:18:26.802Z,16.39
2023-05-10T15:20:56.332Z,16.38
2023-05-10T15:23:24.318Z,16.35
2023-05-10T15:25:56.525Z,16.31
2023-05-10T15:28:24.691Z,16.28
2023-05-10T15:30:52.771Z,16.25
2023-05-10T15:33:20.700Z,16.25
2023-05-10T15:35:48.748Z,16.26
2023-05-10T15:38:16.665Z,16.22
2023-05-10T15:40:44.724Z,16.16
2023-05-10T15:43:12.718Z,16.14
2023-05-10T15:45:40.685Z,16.12
2023-05-10T15:48:08.684Z,16.06
2023-05-10T15:50:36.844Z,16.00
2023-05-10T15:53:04.819Z,16.00
2023-05-10T15:55:32.910Z,15.94
2023-05-10T15:58:00.800Z,15.88
2023-05-10T16:00:29.018Z,15.83
2023-05-10T16:02:56.980Z,15.82
2023-05-10T16:05:24.978Z,15.82
2023-05-10T16:07:53.102Z,15.77
2023-05-10T16:10:21.423Z,15.73
2023-05-10T16:12:49.425Z,15.67
2023-05-10T16:15:17.741Z,15.64
2023-05-10T16:17:46.111Z,15.63
2023-05-10T16:20:14.109Z,15.60
2023-05-10T16:22:42.497Z,15.61
2023-05-10T16:25:13.338Z,15.59
2023-05-10T16:27:41.688Z,15.54
2023-05-10T16:30:10.447Z,15.52
2023-05-10T16:32:38.399Z,15.50
2023-05-10T16:35:07.154Z,15.49
2023-05-10T16:37:35.111Z,15.46
2023-05-10T16:40:03.220Z,15.44
2023-05-10T16:42:31.423Z,15.40
2023-05-10T16:45:07.239Z,15.35
2023-05-10T16:47:36.979Z,15.26
2023-05-10T16:50:06.934Z,15.24
2023-05-10T16:52:36.291Z,15.16
2023-05-10T16:55:05.267Z,15.12
2023-05-10T16:57:33.319Z,15.07
2023-05-10T17:00:01.321Z,15.02
2023-05-10T17:02:29.414Z,14.96
2023-05-10T17:04:57.720Z,14.91
2023-05-10T17:07:26.366Z,14.86
2023-05-10T17:09:54.465Z,14.81
2023-05-10T17:12:22.414Z,14.75
2023-05-10T17:14:50.474Z,14.72
2023-05-10T17:17:19.280Z,14.69
2023-05-10T17:19:47.237Z,14.61
2023-05-10T17:22:15.142Z,14.55
2023-05-10T17:24:43.351Z,14.50
2023-05-10T17:27:29.972Z,14.45
2023-05-10T17:29:58.341Z,14.37
2023-05-10T17:32:26.626Z,14.33
2023-05-10T17:34:54.833Z,14.26
2023-05-10T17:37:23.001Z,14.18
2023-05-10T17:39:50.911Z,14.12
2023-05-10T17:42:20.216Z,14.04
2023-05-10T17:44:48.231Z,13.97
2023-05-10T17:47:16.201Z,13.88
2023-05-10T17:49:44.251Z,13.81
2023-05-10T17:52:12.264Z,13.75
2023-05-10T17:54:40.212Z,13.70
2023-05-10T17:57:08.192Z,13.64
2023-05-10T17:59:36.221Z,13.59
2023-05-10T18:02:04.163Z,13.52
2023-05-10T18:04:32.887Z,13.46
2023-05-10T18:07:01.675Z,13.39
2023-05-10T18:09:30.072Z,13.34
2023-05-10T18:11:57.925Z,13.26
2023-05-10T18:14:39.831Z,13.20
2023-05-10T18:17:09.789Z,13.11
2023-05-10T18:19:38.026Z,13.05
2023-05-10T18:22:07.451Z,12.96
2023-05-10T18:24:39.081Z,12.86
2023-05-10T18:27:10.661Z,12.79
2023-05-10T18:29:39.222Z,12.72
2023-05-10T18:32:07.231Z,12.65
2023-05-10T18:34:35.584Z,12.59
2023-05-10T18:37:07.825Z,12.51
2023-05-10T18:39:39.355Z,12.45
2023-05-10T18:42:08.289Z,12.39
2023-05-10T18:44:36.232Z,12.35
2023-05-10T18:47:04.157Z,12.25
2023-05-10T18:49:32.237Z,12.20
2023-05-10T18:52:00.213Z,12.16
2023-05-10T18:54:28.119Z,12.09
2023-05-10T18:56:57.383Z,12.02
2023-05-10T18:59:28.004Z,11.97
2023-05-10T19:01:57.537Z,11.91
2023-05-10T19:04:26.731Z,11.86
2023-05-10T19:06:55.981Z,11.82
2023-05-10T19:09:27.418Z,11.76
2023-05-10T19:11:55.659Z,11.72
2023-05-10T19:14:25.365Z,11.66
2023-05-10T19:16:54.227Z,11.61
2023-05-10T19:19:22.393Z,11.55
2023-05-10T19:21:50.433Z,11.50
2023-05-10T19:24:19.698Z,11.46
2023-05-10T19:26:48.551Z,11.41
2023-05-10T19:29:17.921Z,11.33
2023-05-10T19:31:49.383Z,11.30
2023-05-10T19:34:17.621Z,11.23
2023-05-10T19:36:45.688Z,11.19
2023-05-10T19:39:13.642Z,11.17
2023-05-10T19:41:41.792Z,11.11
2023-05-10T19:44:09.846Z,11.03
2023-05-10T19:46:38.472Z,10.99
2023-05-10T19:49:06.411Z,10.94
2023-05-10T19:51:35.841Z,10.92
2023-05-10T19:54:04.810Z,10.89
2023-05-10T19:56:32.777Z,10.85
2023-05-10T19:59:03.150Z,10.83
2023-05-10T20:01:32.727Z,10.76
2023-05-10T20:04:00.917Z,10.72
2023-05-10T20:06:28.997Z,10.68
2023-05-10T20:08:57.136Z,10.65
2023-05-10T20:11:25.165Z,10.62
2023-05-10T20:13:53.792Z,10.58
2023-05-10T20:16:22.248Z,10.55
2023-05-10T20:18:54.161Z,10.50
2023-05-10T20:21:23.853Z,10.44
2023-05-10T20:23:52.255Z,10.39
2023-05-10T20:26:21.759Z,10.34
2023-05-10T20:28:50.868Z,10.29
2023-05-10T20:31:18.995Z,10.25
2023-05-10T20:33:48.330Z,10.23
2023-05-10T20:36:16.972Z,10.19
2023-05-10T20:38:45.190Z,10.14
2023-05-10T20:41:13.813Z,10.08
2023-05-10T20:43:42.264Z,10.05
2023-05-10T20:46:10.427Z,10.02
2023-05-10T20:48:40.149Z,9.97
2023-05-10T20:51:08.587Z,9.93
2023-05-10T20:53:37.156Z,9.91
2023-05-10T20:56:06.085Z,9.87
2023-05-10T20:58:35.640Z,9.84
2023-05-10T21:01:04.243Z,9.80
2023-05-10T21:03:32.577Z,9.78
2023-05-10T21:06:00.662Z,9.75
2023-05-10T21:08:28.637Z,9.71
2023-05-10T21:10:56.891Z,9.67
2023-05-10T21:13:25.729Z,9.63
2023-05-10T21:15:54.275Z,9.62
2023-05-10T21:18:22.987Z,9.59
2023-05-10T21:20:51.254Z,9.57
2023-05-10T21:23:19.274Z,9.55
2023-05-10T21:25:48.821Z,9.52
2023-05-10T21:28:16.842Z,9.50
2023-05-10T21:30:44.761Z,9.48
2023-05-10T21:33:12.998Z,9.45
2023-05-10T21:35:42.815Z,9.43
2023-05-10T21:38:11.892Z,9.42
2023-05-10T21:40:41.054Z,9.40
2023-05-10T21:43:09.676Z,9.37
2023-05-10T21:45:38.092Z,9.36
2023-05-10T21:48:06.309Z,9.31
2023-05-10T21:50:34.218Z,9.28
2023-05-10T21:53:02.390Z,9.25
2023-05-10T21:55:30.409Z,9.23
2023-05-10T21:57:58.445Z,9.22
2023-05-10T22:00:26.731Z,9.18
2023-05-10T22:02:55.155Z,9.16
2023-05-10T22:05:23.363Z,9.14
2023-05-10T22:07:51.253Z,9.14
2023-05-10T22:10:19.550Z,9.12
2023-05-10T22:12:47.637Z,9.09
2023-05-10T22:17:47.174Z,9.10
2023-05-10T22:20:13.856Z,9.05
2023-05-10T22:22:40.372Z,9.04
2023-05-10T22:25:07.324Z,9.03
2023-05-10T22:27:34.357Z,9.04
2023-05-10T22:30:01.620Z,9.03
2023-05-10T22:32:28.401Z,8.98
2023-05-10T22:34:55.072Z,8.93
2023-05-10T22:37:21.656Z,8.90
2023-05-10T22:39:48.936Z,8.89
2023-05-10T22:42:15.768Z,8.84
2023-05-10T22:44:43.602Z,8.81
2023-05-10T22:47:10.258Z,8.78
2023-05-10T22:49:37.062Z,8.77
2023-05-10T22:52:03.645Z,8.75
2023-05-10T22:54:30.186Z,8.74
2023-05-10T22:56:56.874Z,8.69
2023-05-10T22:59:23.450Z,8.67
2023-05-10T23:01:50.063Z,8.63
2023-05-10T23:04:16.636Z,8.61
2023-05-10T23:06:43.281Z,8.60
2023-05-10T23:09:10.043Z,8.57
2023-05-10T23:11:36.559Z,8.53
2023-05-10T23:14:03.255Z,8.47
2023-05-10T23:16:29.895Z,8.47
2023-05-10T23:18:57.607Z,8.44
2023-05-10T23:21:24.602Z,8.41
2023-05-10T23:23:51.696Z,8.39
2023-05-10T23:26:18.857Z,8.36
2023-05-10T23:28:48.018Z,8.30
2023-05-10T23:31:14.914Z,8.26
2023-05-10T23:33:41.679Z,8.24
2023-05-10T23:36:08.304Z,8.21
2023-05-10T23:38:34.885Z,8.16
2023-05-10T23:41:01.440Z,8.15
2023-05-10T23:43:28.047Z,8.15
2023-05-10T23:45:55.495Z,8.12
2023-05-10T23:48:22.271Z,8.09
2023-05-10T23:50:49.345Z,8.05
2023-05-10T23:53:16.180Z,8.01
2023-05-10T23:55:42.878Z,7.99
2023-05-10T23:58:09.538Z,7.96
